createdAt,value
2023-05-07T00:02:08.900Z,101609.88
2023-05-07T00:04:40.376Z,101608.88
2023-05-07T00:07:11.854Z,101605.00
2023-05-07T00:09:43.340Z,101610.31
2023-05-07T00:12:14.891Z,101613.25
2023-05-07T00:14:46.679Z,101613.31
2023-05-07T00:17:18.113Z,101608.94
2023-05-07T00:19:49.571Z,101599.38
2023-05-07T00:22:21.043Z,101606.34
2023-05-07T00:24:52.946Z,101598.81
2023-05-07T00:27:24.689Z,101608.63
2023-05-07T00:29:56.500Z,101601.41
2023-05-07T00:32:28.332Z,101605.16
2023-05-07T00:34:59.786Z,101605.91
2023-05-07T00:37:31.530Z,101606.81
2023-05-07T00:40:03.016Z,101607.19
2023-05-07T00:42:34.481Z,101605.72
2023-05-07T00:45:05.934Z,101605.34
2023-05-07T00:47:37.470Z,101611.75
2023-05-07T00:50:09.335Z,101603.31
2023-05-07T00:52:41.167Z,101595.28
2023-05-07T00:55:12.710Z,101603.63
2023-05-07T00:57:44.596Z,101606.09
2023-05-07T01:00:16.072Z,101590.84
2023-05-07T01:02:47.570Z,101594.00
2023-05-07T01:05:19.757Z,101600.84
2023-05-07T01:07:51.756Z,101588.56
2023-05-07T01:10:23.253Z,101600.59
2023-05-07T01:12:54.767Z,101600.59
2023-05-07T01:15:26.633Z,101607.94
2023-05-07T01:17:58.138Z,101611.22
2023-05-07T01:20:29.950Z,101607.94
2023-05-07T01:23:01.403Z,101612.50
2023-05-07T01:25:32.901Z,101603.31
2023-05-07T01:28:04.704Z,101609.84
2023-05-07T01:30:36.178Z,101604.72
2023-05-07T01:33:07.820Z,101604.06
2023-05-07T01:35:39.296Z,101603.50
2023-05-07T01:38:11.256Z,101603.88
2023-05-07T01:40:42.690Z,101602.50
2023-05-07T01:43:14.425Z,101600.97
2023-05-07T01:45:45.857Z,101606.16
2023-05-07T01:48:17.593Z,101608.50
2023-05-07T01:50:49.113Z,101603.00
2023-05-07T01:53:21.072Z,101612.59
2023-05-07T01:55:52.527Z,101612.50
2023-05-07T01:58:24.400Z,101614.16
2023-05-07T02:00:56.173Z,101613.31
2023-05-07T02:03:27.811Z,101614.81
2023-05-07T02:06:00.326Z,101618.66
2023-05-07T02:08:31.830Z,101618.31
2023-05-07T02:11:03.661Z,101619.88
2023-05-07T02:13:35.182Z,101623.72
2023-05-07T02:16:07.001Z,101617.22
2023-05-07T02:18:38.583Z,101625.00
2023-05-07T02:21:10.233Z,101624.75
2023-05-07T02:23:41.669Z,101622.91
2023-05-07T02:26:13.396Z,101623.72
2023-05-07T02:28:45.173Z,101622.91
2023-05-07T02:31:16.651Z,101624.19
2023-05-07T02:33:48.487Z,101629.31
2023-05-07T02:36:19.950Z,101632.78
2023-05-07T02:38:51.709Z,101633.34
2023-05-07T02:41:23.178Z,101627.28
2023-05-07T02:43:56.423Z,101633.44
2023-05-07T02:46:27.939Z,101633.53
2023-05-07T02:48:59.817Z,101624.75
2023-05-07T02:51:31.288Z,101632.72
2023-05-07T02:54:03.117Z,101638.66
2023-05-07T02:56:34.652Z,101642.97
2023-05-07T02:59:06.408Z,101638.59
2023-05-07T03:01:37.946Z,101646.44
2023-05-07T03:04:09.467Z,101658.28
2023-05-07T03:06:40.960Z,101644.47
2023-05-07T03:09:12.408Z,101651.06
2023-05-07T03:11:44.184Z,101653.06
2023-05-07T03:14:15.712Z,101648.56
2023-05-07T03:16:47.451Z,101654.44
2023-05-07T03:19:18.930Z,101648.66
2023-05-07T03:21:50.726Z,101659.28
2023-05-07T03:24:22.216Z,101653.22
2023-05-07T03:26:54.041Z,101650.84
2023-05-07T03:29:25.856Z,101663.31
2023-05-07T03:31:57.345Z,101657.81
2023-05-07T03:34:29.423Z,101655.53
2023-05-07T03:37:00.881Z,101658.81
2023-05-07T03:39:32.723Z,101660.38
2023-05-07T03:42:04.191Z,101659.38
2023-05-07T03:44:35.661Z,101663.41
2023-05-07T03:47:07.107Z,101667.16
2023-05-07T03:49:38.596Z,101670.28
2023-05-07T03:52:11.022Z,101674.50
2023-05-07T03:54:42.693Z,101683.50
2023-05-07T03:57:14.666Z,101676.91
2023-05-07T03:59:46.163Z,101675.50
2023-05-07T04:02:17.903Z,101672.47
2023-05-07T04:04:49.417Z,101677.81
2023-05-07T04:07:21.260Z,101667.91
2023-05-07T04:09:52.772Z,101676.06
2023-05-07T04:12:24.446Z,101675.31
2023-05-07T04:14:55.926Z,101677.25
2023-05-07T04:17:27.810Z,101675.97
2023-05-07T04:19:59.290Z,101688.16
2023-05-07T04:22:31.046Z,101688.34
2023-05-07T04:25:02.827Z,101690.56
2023-05-07T04:27:34.297Z,101695.41
2023-05-07T04:30:06.073Z,101699.06
2023-05-07T04:32:37.543Z,101702.00
2023-05-07T04:35:09.661Z,101706.13
2023-05-07T04:37:41.131Z,101700.88
2023-05-07T04:40:12.785Z,101710.53
2023-05-07T04:42:44.458Z,101711.66
2023-05-07T04:45:16.220Z,101714.13
2023-05-07T04:47:47.705Z,101708.16
2023-05-07T04:50:19.536Z,101711.53
2023-05-07T04:52:50.974Z,101703.19
2023-05-07T04:55:22.724Z,101716.38
2023-05-07T04:57:54.602Z,101717.31
2023-05-07T05:00:26.214Z,101714.81
2023-05-07T05:02:58.017Z,101720.94
2023-05-07T05:05:29.568Z,101717.28
2023-05-07T05:08:01.536Z,101722.78
2023-05-07T05:10:33.083Z,101729.75
2023-05-07T05:13:04.866Z,101726.19
2023-05-07T05:15:36.350Z,101722.78
2023-05-07T05:18:08.140Z,101729.50
2023-05-07T05:20:39.623Z,101736.63
2023-05-07T05:23:11.396Z,101735.91
2023-05-07T05:25:42.835Z,101732.59
2023-05-07T05:28:14.747Z,101735.91
2023-05-07T05:30:46.253Z,101731.91
2023-05-07T05:33:17.707Z,101735.22
2023-05-07T05:35:49.520Z,101739.22
2023-05-07T05:38:21.053Z,101731.59
2023-05-07T05:40:54.777Z,101734.31
2023-05-07T05:43:27.535Z,101731.00
2023-05-07T05:45:59.400Z,101728.97
2023-05-07T05:48:30.902Z,101738.84
2023-05-07T05:51:02.404Z,101733.44
2023-05-07T05:53:33.960Z,101734.63
2023-05-07T05:56:05.774Z,101736.13
2023-05-07T05:58:37.287Z,101736.50
2023-05-07T06:01:09.262Z,101741.59
2023-05-07T06:03:40.741Z,101744.66
2023-05-07T06:06:12.223Z,101740.50
2023-05-07T06:08:44.045Z,101739.78
2023-05-07T06:11:15.548Z,101743.63
2023-05-07T06:13:47.448Z,101738.28
2023-05-07T06:16:18.903Z,101745.00
2023-05-07T06:18:50.758Z,101746.22
2023-05-07T06:21:22.265Z,101751.16
2023-05-07T06:23:54.055Z,101758.63
2023-05-07T06:26:25.868Z,101754.41
2023-05-07T06:28:57.651Z,101761.22
2023-05-07T06:31:29.632Z,101768.31
2023-05-07T06:34:01.153Z,101760.84
2023-05-07T06:36:32.651Z,101763.19
2023-05-07T06:39:04.115Z,101775.13
2023-05-07T06:41:35.602Z,101775.66
2023-05-07T06:44:07.086Z,101779.03
2023-05-07T06:46:38.681Z,101788.41
2023-05-07T06:49:10.169Z,101781.00
2023-05-07T06:51:41.942Z,101784.22
2023-05-07T06:54:13.363Z,101782.25
2023-05-07T06:56:45.123Z,101791.59
2023-05-07T06:59:16.929Z,101784.78
2023-05-07T07:01:48.773Z,101786.91
2023-05-07T07:04:20.359Z,101787.59
2023-05-07T07:06:51.886Z,101785.19
2023-05-07T07:09:24.200Z,101782.94
2023-05-07T07:11:55.739Z,101785.38
2023-05-07T07:14:27.319Z,101785.59
2023-05-07T07:16:58.808Z,101787.84
2023-05-07T07:19:30.271Z,101780.06
2023-05-07T07:22:01.777Z,101778.63
2023-05-07T07:24:33.464Z,101780.28
2023-05-07T07:27:04.926Z,101800.19
2023-05-07T07:29:36.380Z,101794.25
2023-05-07T07:32:08.207Z,101793.66
2023-05-07T07:34:39.677Z,101784.75
2023-05-07T07:37:11.498Z,101781.81
2023-05-07T07:39:42.960Z,101771.53
2023-05-07T07:42:14.729Z,101775.19
2023-05-07T07:44:46.166Z,101776.75
2023-05-07T07:47:17.634Z,101771.72
2023-05-07T07:49:49.066Z,101774.34
2023-05-07T07:52:20.795Z,101769.59
2023-05-07T07:54:52.577Z,101778.53
2023-05-07T07:57:24.029Z,101770.50
2023-05-07T07:59:56.006Z,101785.63
2023-05-07T08:02:27.582Z,101782.66
2023-05-07T08:04:59.628Z,101779.53
2023-05-07T08:07:31.078Z,101784.00
2023-05-07T08:10:02.846Z,101782.84
2023-05-07T08:12:34.319Z,101776.94
2023-05-07T08:15:06.197Z,101774.13
2023-05-07T08:17:37.837Z,101776.16
2023-05-07T08:20:09.945Z,101775.66
2023-05-07T08:22:41.578Z,101772.50
2023-05-07T08:25:13.499Z,101776.13
2023-05-07T08:27:45.458Z,101771.13
2023-05-07T08:30:16.942Z,101776.28
2023-05-07T08:32:48.679Z,101779.41
2023-05-07T08:35:20.174Z,101778.44
2023-05-07T08:37:51.827Z,101776.38
2023-05-07T08:40:23.267Z,101785.78
2023-05-07T08:42:55.079Z,101791.22
2023-05-07T08:45:26.613Z,101789.00
2023-05-07T08:47:58.132Z,101783.91
2023-05-07T08:50:29.607Z,101783.97
2023-05-07T08:53:01.418Z,101784.34
2023-05-07T08:55:33.322Z,101781.91
2023-05-07T08:58:04.941Z,101783.56
2023-05-07T09:00:36.431Z,101782.72
2023-05-07T09:03:08.013Z,101789.97
2023-05-07T09:05:39.512Z,101779.66
2023-05-07T09:08:10.992Z,101786.09
2023-05-07T09:10:42.831Z,101789.25
2023-05-07T09:13:14.393Z,101785.41
2023-05-07T09:15:46.165Z,101785.97
2023-05-07T09:18:17.677Z,101791.06
2023-05-07T09:20:49.145Z,101791.72
2023-05-07T09:23:20.592Z,101795.06
2023-05-07T09:25:52.251Z,101796.59
2023-05-07T09:28:23.740Z,101790.88
2023-05-07T09:30:55.184Z,101781.72
2023-05-07T09:33:27.232Z,101786.97
2023-05-07T09:35:58.738Z,101788.47
2023-05-07T09:38:30.562Z,101789.81
2023-05-07T09:41:02.155Z,101794.97
2023-05-07T09:43:33.648Z,101793.75
2023-05-07T09:46:05.118Z,101792.50
2023-05-07T09:48:36.793Z,101800.09
2023-05-07T09:51:08.282Z,101799.06
2023-05-07T09:53:39.775Z,101807.00
2023-05-07T09:56:11.673Z,101802.22
2023-05-07T09:58:43.137Z,101806.00
2023-05-07T10:01:14.963Z,101812.75
2023-05-07T10:03:46.601Z,101673.84
2023-05-07T10:06:18.139Z,101805.47
2023-05-07T10:08:49.608Z,101806.47
2023-05-07T10:11:21.102Z,101814.09
2023-05-07T10:13:52.562Z,101809.84
2023-05-07T10:16:24.215Z,101807.31
2023-05-07T10:18:55.787Z,101796.41
2023-05-07T10:21:27.454Z,101741.81
2023-05-07T10:23:58.910Z,101810.19
2023-05-07T10:26:30.717Z,101806.41
2023-05-07T10:29:02.698Z,101808.78
2023-05-07T10:31:34.254Z,101812.31
2023-05-07T10:34:06.212Z,101811.00
2023-05-07T10:36:38.572Z,101810.50
2023-05-07T10:39:10.498Z,101810.25
2023-05-07T10:41:41.968Z,101801.16
2023-05-07T10:44:13.797Z,101811.53
2023-05-07T10:46:45.384Z,101808.31
2023-05-07T10:49:17.253Z,101812.50
2023-05-07T10:51:48.715Z,101818.50
2023-05-07T10:54:20.540Z,101819.44
2023-05-07T10:56:52.368Z,101813.97
2023-05-07T10:59:24.267Z,101817.34
2023-05-07T11:01:56.331Z,101808.31
2023-05-07T11:04:27.948Z,101816.53
2023-05-07T11:06:59.811Z,101807.97
2023-05-07T11:09:31.264Z,101809.47
2023-05-07T11:12:03.287Z,101794.22
2023-05-07T11:14:34.728Z,101803.44
2023-05-07T11:17:06.453Z,101798.63
2023-05-07T11:19:37.951Z,101800.16
2023-05-07T11:22:09.935Z,101798.72
2023-05-07T11:24:41.433Z,101799.63
2023-05-07T11:27:13.155Z,101792.38
2023-05-07T11:29:44.967Z,101790.94
2023-05-07T11:32:16.448Z,101793.72
2023-05-07T11:34:47.919Z,101782.38
2023-05-07T11:37:19.414Z,101780.88
2023-05-07T11:39:51.247Z,101786.66
2023-05-07T11:42:22.715Z,101784.16
2023-05-07T11:44:54.364Z,101777.63
2023-05-07T11:47:25.922Z,101785.19
2023-05-07T11:49:57.575Z,101783.88
2023-05-07T11:52:30.948Z,101779.91
2023-05-07T11:55:02.693Z,101780.47
2023-05-07T11:57:34.816Z,101781.81
2023-05-07T12:00:06.762Z,101768.03
2023-05-07T12:02:38.341Z,101771.34
2023-05-07T12:05:10.256Z,101775.56
2023-05-07T12:07:42.353Z,101775.69
2023-05-07T12:10:13.819Z,101782.78
2023-05-07T12:12:45.369Z,101779.94
2023-05-07T12:15:16.838Z,101783.63
2023-05-07T12:17:48.419Z,101783.25
2023-05-07T12:20:19.918Z,101781.00
2023-05-07T12:22:51.464Z,101776.25
2023-05-07T12:25:23.379Z,101783.06
2023-05-07T12:27:55.254Z,101793.94
2023-05-07T12:30:26.711Z,101788.09
2023-05-07T12:33:07.749Z,101776.16
2023-05-07T12:35:39.321Z,101784.19
2023-05-07T12:38:10.792Z,101785.00
2023-05-07T12:40:42.782Z,101785.97
2023-05-07T12:43:14.253Z,101786.00
2023-05-07T12:45:45.992Z,101785.53
2023-05-07T12:48:17.461Z,101788.75
2023-05-07T12:50:48.927Z,101782.38
2023-05-07T12:53:20.763Z,101779.94
2023-05-07T12:55:52.588Z,101775.38
2023-05-07T12:58:24.410Z,101784.22
2023-05-07T13:00:55.976Z,101785.31
2023-05-07T13:03:27.736Z,101787.13
2023-05-07T13:05:59.258Z,101783.84
2023-05-07T13:08:32.264Z,101773.97
2023-05-07T13:11:03.740Z,101782.63
2023-05-07T13:13:35.288Z,101780.31
2023-05-07T13:16:06.913Z,101772.63
2023-05-07T13:18:38.522Z,101786.25
2023-05-07T13:21:13.025Z,101783.44
2023-05-07T13:23:44.806Z,101786.66
2023-05-07T13:26:26.401Z,101778.81
2023-05-07T13:28:59.052Z,101781.91
2023-05-07T13:31:30.861Z,101786.63
2023-05-07T13:34:02.466Z,101787.63
2023-05-07T13:36:33.977Z,101775.69
2023-05-07T13:39:05.476Z,101780.97
2023-05-07T13:41:36.949Z,101776.00
2023-05-07T13:44:08.420Z,101778.47
2023-05-07T13:46:39.911Z,101784.06
2023-05-07T13:49:11.356Z,101786.66
2023-05-07T13:51:43.137Z,101788.84
2023-05-07T13:54:14.982Z,101777.06
2023-05-07T13:56:46.455Z,101786.13
2023-05-07T13:59:18.423Z,101775.97
2023-05-07T14:01:49.936Z,101778.50
2023-05-07T14:04:21.732Z,101774.09
2023-05-07T14:06:53.210Z,101774.47
2023-05-07T14:09:24.913Z,101767.00
2023-05-07T14:11:56.390Z,101771.09
2023-05-07T14:14:28.179Z,101763.59
2023-05-07T14:16:59.684Z,101768.47
2023-05-07T14:19:31.537Z,101769.56
2023-05-07T14:22:03.004Z,101771.25
2023-05-07T14:24:38.685Z,101755.75
2023-05-07T14:27:10.895Z,101755.84
2023-05-07T14:29:42.409Z,101753.97
2023-05-07T14:32:14.263Z,101754.03
2023-05-07T14:34:45.716Z,101760.66
2023-05-07T14:37:17.468Z,101759.50
2023-05-07T14:39:50.815Z,101749.97
2023-05-07T14:42:22.938Z,101745.69
2023-05-07T14:44:54.420Z,101745.78
2023-05-07T14:47:25.928Z,101762.88
2023-05-07T14:49:57.421Z,101754.13
2023-05-07T14:52:29.238Z,101749.75
2023-05-07T14:55:00.705Z,101743.81
2023-05-07T14:57:32.805Z,101764.59
2023-05-07T15:00:04.775Z,101763.03
2023-05-07T15:02:36.331Z,101764.19
2023-05-07T15:05:08.260Z,101772.28
2023-05-07T15:07:39.724Z,101771.00
2023-05-07T15:10:11.397Z,101774.97
2023-05-07T15:12:42.857Z,101768.69
2023-05-07T15:15:14.884Z,101777.50
2023-05-07T15:17:46.366Z,101767.44
2023-05-07T15:20:18.168Z,101779.97
2023-05-07T15:22:49.936Z,101785.97
2023-05-07T15:25:21.377Z,101775.44
2023-05-07T15:27:53.164Z,101788.25
2023-05-07T15:30:24.635Z,101783.69
2023-05-07T15:32:56.182Z,101790.50
2023-05-07T15:35:27.642Z,101777.94
2023-05-07T15:37:59.120Z,101786.84
2023-05-07T15:40:30.568Z,101784.91
2023-05-07T15:43:02.049Z,101786.78
2023-05-07T15:45:33.585Z,101797.34
2023-05-07T15:48:05.396Z,101790.91
2023-05-07T15:50:36.906Z,101785.41
2023-05-07T15:53:08.588Z,101788.97
2023-05-07T15:55:40.067Z,101790.47
2023-05-07T15:58:11.577Z,101787.78
2023-05-07T16:00:43.033Z,101792.66
2023-05-07T16:03:14.515Z,101790.47
2023-05-07T16:05:46.065Z,101783.13
2023-05-07T16:08:17.523Z,101784.81
2023-05-07T16:10:48.995Z,101782.59
2023-05-07T16:13:20.538Z,101786.78
2023-05-07T16:15:52.542Z,101792.44
2023-05-07T16:18:24.338Z,101793.13
2023-05-07T16:20:55.852Z,101793.72
2023-05-07T16:23:27.499Z,101796.38
2023-05-07T16:25:58.965Z,101787.56
2023-05-07T16:28:30.797Z,101795.81
2023-05-07T16:31:02.280Z,101795.69
2023-05-07T16:33:33.747Z,101797.78
2023-05-07T16:36:05.188Z,101802.44
2023-05-07T16:38:36.660Z,101801.38
2023-05-07T16:41:08.098Z,101796.88
2023-05-07T16:43:39.570Z,101807.19
2023-05-07T16:46:11.073Z,101804.91
2023-05-07T16:48:42.562Z,101804.50
2023-05-07T16:51:14.302Z,101811.56
2023-05-07T16:53:46.219Z,101802.78
2023-05-07T16:56:17.987Z,101795.19
2023-05-07T16:58:49.492Z,101810.34
2023-05-07T17:01:21.450Z,101814.38
2023-05-07T17:03:53.144Z,101813.00
2023-05-07T17:06:25.211Z,101810.69
2023-05-07T17:08:56.689Z,101813.78
2023-05-07T17:11:28.499Z,101813.25
2023-05-07T17:13:59.943Z,101823.94
2023-05-07T17:16:31.954Z,101817.94
2023-05-07T17:19:03.728Z,101817.78
2023-05-07T17:21:35.212Z,101821.41
2023-05-07T17:24:06.959Z,101821.00
2023-05-07T17:26:38.428Z,101821.16
2023-05-07T17:29:10.210Z,101830.13
2023-05-07T17:31:41.710Z,101825.66
2023-05-07T17:34:13.536Z,101833.38
2023-05-07T17:36:44.988Z,101829.09
2023-05-07T17:39:16.758Z,101837.88
2023-05-07T17:41:48.217Z,101841.75
2023-05-07T17:44:20.017Z,101837.72
2023-05-07T17:46:51.774Z,101851.84
2023-05-07T17:49:23.567Z,101865.34
2023-05-07T17:51:55.975Z,101868.97
2023-05-07T17:54:27.620Z,101852.00
2023-05-07T17:56:59.077Z,101848.75
2023-05-07T17:59:30.603Z,101680.72
2023-05-07T18:02:02.097Z,101848.16
2023-05-07T18:04:33.550Z,101861.28
2023-05-07T18:07:05.027Z,101863.44
2023-05-07T18:09:36.476Z,101862.66
2023-05-07T18:12:08.231Z,101872.75
2023-05-07T18:14:39.735Z,101865.31
2023-05-07T18:17:11.386Z,101865.59
2023-05-07T18:19:43.243Z,101875.28
2023-05-07T18:22:14.710Z,101873.44
2023-05-07T18:24:46.189Z,101876.13
2023-05-07T18:27:17.712Z,101882.75
2023-05-07T18:29:49.550Z,101885.44
2023-05-07T18:32:21.125Z,101884.59
2023-05-07T18:34:52.682Z,101884.19
2023-05-07T18:37:25.414Z,101880.06
2023-05-07T18:39:58.345Z,101881.91
2023-05-07T18:42:30.622Z,101893.44
2023-05-07T18:45:02.181Z,101892.22
2023-05-07T18:47:33.656Z,101903.56
2023-05-07T18:50:06.254Z,101899.44
2023-05-07T18:52:39.579Z,101894.09
2023-05-07T18:55:11.056Z,101908.09
2023-05-07T18:57:42.510Z,101906.44
2023-05-07T19:00:14.311Z,101906.44
2023-05-07T19:02:46.277Z,101917.97
2023-05-07T19:05:17.753Z,101914.47
2023-05-07T19:07:49.224Z,101915.50
2023-05-07T19:10:21.110Z,101915.09
2023-05-07T19:12:52.890Z,101920.22
2023-05-07T19:15:24.657Z,101920.03
2023-05-07T19:17:56.174Z,101919.81
2023-05-07T19:20:27.858Z,101929.69
2023-05-07T19:22:59.335Z,101928.47
2023-05-07T19:25:31.136Z,101934.03
2023-05-07T19:28:02.588Z,101927.84
2023-05-07T19:30:34.056Z,101934.84
2023-05-07T19:33:05.685Z,101936.50
2023-05-07T19:35:37.220Z,101939.78
2023-05-07T19:38:08.684Z,101942.41
2023-05-07T19:40:40.161Z,101940.97
2023-05-07T19:43:11.995Z,101951.66
2023-05-07T19:45:43.526Z,101951.59
2023-05-07T19:48:15.090Z,101951.97
2023-05-07T19:50:46.546Z,101953.16
2023-05-07T19:53:18.450Z,101956.75
2023-05-07T19:55:49.912Z,101955.66
2023-05-07T19:58:21.559Z,101958.25
2023-05-07T20:00:53.109Z,101965.84
2023-05-07T20:03:25.013Z,101965.13
2023-05-07T20:05:56.525Z,101974.31
2023-05-07T20:08:28.168Z,101972.63
2023-05-07T20:10:59.662Z,101982.63
2023-05-07T20:13:31.299Z,101984.59
2023-05-07T20:16:02.966Z,101978.38
2023-05-07T20:18:34.466Z,101988.13
2023-05-07T20:21:06.147Z,101985.13
2023-05-07T20:23:37.633Z,101988.00
2023-05-07T20:26:09.260Z,102001.34
2023-05-07T20:28:40.726Z,102003.91
2023-05-07T20:31:12.635Z,102010.38
2023-05-07T20:33:44.148Z,102001.88
2023-05-07T20:36:15.928Z,102008.34
2023-05-07T20:38:47.379Z,102013.75
2023-05-07T20:41:19.081Z,102009.06
2023-05-07T20:43:50.967Z,102001.81
2023-05-07T20:46:23.285Z,102013.22
2023-05-07T20:48:55.394Z,102006.59
2023-05-07T20:51:26.861Z,102007.78
2023-05-07T20:53:58.585Z,102012.56
2023-05-07T20:56:30.050Z,102007.44
2023-05-07T20:59:01.853Z,102007.31
2023-05-07T21:01:33.364Z,102014.66
2023-05-07T21:04:05.217Z,102012.56
2023-05-07T21:06:36.697Z,102014.50
2023-05-07T21:09:08.170Z,102013.47
2023-05-07T21:11:39.634Z,102016.06
2023-05-07T21:14:11.422Z,102016.78
2023-05-07T21:16:43.348Z,102015.69
2023-05-07T21:19:14.867Z,102019.69
2023-05-07T21:21:46.721Z,102016.94
2023-05-07T21:24:18.171Z,102025.28
2023-05-07T21:26:50.052Z,102025.28
2023-05-07T21:29:21.527Z,102028.03
2023-05-07T21:31:53.011Z,102028.56
2023-05-07T21:34:24.457Z,102029.59
2023-05-07T21:36:56.232Z,102026.63
2023-05-07T21:39:27.701Z,102023.34
2023-05-07T21:41:59.525Z,102025.03
2023-05-07T21:44:31.361Z,102024.38
2023-05-07T21:47:02.807Z,102028.78
2023-05-07T21:49:34.353Z,102029.78
2023-05-07T21:52:05.796Z,102029.13
2023-05-07T21:54:37.285Z,102032.16
2023-05-07T21:57:08.728Z,102044.16
2023-05-07T21:59:40.198Z,102043.69
2023-05-07T22:02:11.646Z,102042.84
2023-05-07T22:04:43.433Z,102044.41
2023-05-07T22:07:14.881Z,102046.91
2023-05-07T22:09:46.638Z,102043.97
2023-05-07T22:12:18.133Z,102040.28
2023-05-07T22:14:49.999Z,102046.78
2023-05-07T22:17:21.705Z,102044.00
2023-05-07T22:19:53.180Z,102055.81
2023-05-07T22:22:24.986Z,102048.38
2023-05-07T22:24:56.462Z,102050.88
2023-05-07T22:27:28.131Z,102053.41
2023-05-07T22:29:59.617Z,102057.41
2023-05-07T22:32:31.138Z,102041.34
2023-05-07T22:35:02.637Z,102049.13
2023-05-07T22:37:34.138Z,102047.16
2023-05-07T22:40:05.650Z,102050.81
2023-05-07T22:42:37.164Z,102049.16
2023-05-07T22:45:09.010Z,102047.66
2023-05-07T22:47:40.521Z,102060.13
2023-05-07T22:50:12.485Z,102061.47
2023-05-07T22:52:44.153Z,102060.16
2023-05-07T22:55:15.943Z,102058.84
2023-05-07T22:57:47.390Z,102053.69
2023-05-07T23:00:18.911Z,102055.69
2023-05-07T23:02:50.459Z,102059.00
2023-05-07T23:05:22.522Z,102054.88
2023-05-07T23:07:53.995Z,102057.69
2023-05-07T23:10:25.845Z,102050.72
2023-05-07T23:12:57.328Z,102061.03
2023-05-07T23:15:29.028Z,102056.91
2023-05-07T23:18:01.031Z,102055.06
2023-05-07T23:20:32.548Z,102068.84
2023-05-07T23:23:04.221Z,102051.75
2023-05-07T23:25:35.723Z,102056.38
2023-05-07T23:28:07.512Z,102058.25
2023-05-07T23:30:39.003Z,102051.59
2023-05-07T23:33:10.825Z,102058.72
2023-05-07T23:35:42.323Z,102058.59
2023-05-07T23:38:14.173Z,102055.09
2023-05-07T23:40:45.621Z,102056.28
2023-05-07T23:43:17.422Z,102058.28
2023-05-07T23:45:49.261Z,102053.13
2023-05-07T23:48:21.042Z,102049.66
2023-05-07T23:50:52.550Z,102046.69
2023-05-07T23:53:24.002Z,102050.66
2023-05-07T23:55:56.019Z,102049.00
2023-05-07T23:58:27.486Z,102050.00
